createdAt,value
2023-05-05T00:00:35.751Z,5.13
2023-05-05T00:03:49.300Z,5.72
2023-05-05T00:06:59.878Z,4.30
2023-05-05T00:10:23.615Z,4.88
2023-05-05T00:13:31.975Z,5.27
2023-05-05T00:16:36.056Z,5.57
2023-05-05T00:19:39.260Z,6.03
2023-05-05T00:22:46.708Z,5.78
2023-05-05T00:26:03.766Z,6.70
2023-05-05T00:29:08.815Z,4.03
2023-05-05T00:32:27.064Z,6.00
2023-05-05T00:35:40.138Z,5.97
2023-05-05T00:39:00.545Z,4.97
2023-05-05T00:42:22.135Z,5.35
2023-05-05T00:45:24.341Z,5.77
2023-05-05T00:48:26.904Z,5.43
2023-05-05T00:51:29.115Z,5.82
2023-05-05T00:54:31.376Z,5.65
2023-05-05T00:57:35.143Z,5.25
2023-05-05T01:00:37.370Z,6.07
2023-05-05T01:03:40.152Z,5.13
2023-05-05T01:06:42.624Z,5.63
2023-05-05T01:09:47.824Z,5.15
2023-05-05T01:12:50.121Z,6.20
2023-05-05T01:15:56.675Z,6.47
2023-05-05T01:19:29.718Z,5.30
2023-05-05T01:22:38.214Z,5.85
2023-05-05T01:25:58.747Z,9.15
2023-05-05T01:29:07.513Z,5.43
2023-05-05T01:32:19.749Z,5.40
2023-05-05T01:35:24.942Z,5.65
2023-05-05T01:38:31.484Z,5.03
2023-05-05T01:41:39.607Z,5.95
2023-05-05T01:44:43.682Z,5.20
2023-05-05T01:47:46.287Z,6.87
2023-05-05T01:50:49.106Z,6.05
2023-05-05T01:53:57.026Z,6.07
2023-05-05T01:56:59.575Z,6.72
2023-05-05T02:00:06.266Z,5.65
2023-05-05T02:03:17.545Z,7.07
2023-05-05T02:06:20.835Z,5.18
2023-05-05T02:09:25.151Z,6.32
2023-05-05T02:12:29.149Z,7.57
2023-05-05T02:15:32.957Z,7.15
2023-05-05T02:18:36.122Z,7.17
2023-05-05T02:21:38.429Z,7.68
2023-05-05T02:24:41.784Z,8.43
2023-05-05T02:27:45.046Z,6.30
2023-05-05T02:31:06.096Z,8.43
2023-05-05T02:34:08.883Z,6.70
2023-05-05T02:37:15.149Z,6.43
2023-05-05T02:40:22.458Z,8.48
2023-05-05T02:43:25.756Z,7.35
2023-05-05T02:46:28.414Z,7.18
2023-05-05T02:49:30.701Z,11.03
2023-05-05T02:52:35.565Z,7.82
2023-05-05T02:55:58.306Z,7.20
2023-05-05T02:59:19.571Z,6.97
2023-05-05T03:02:24.649Z,6.95
2023-05-05T03:05:29.592Z,6.80
2023-05-05T03:08:37.006Z,8.15
2023-05-05T03:11:43.691Z,6.82
2023-05-05T03:14:46.182Z,6.57
2023-05-05T03:17:51.805Z,6.85
2023-05-05T03:20:54.721Z,8.37
2023-05-05T03:23:57.208Z,7.18
2023-05-05T03:26:59.551Z,8.73
2023-05-05T03:30:08.551Z,7.50
2023-05-05T03:33:15.796Z,7.60
2023-05-05T03:36:18.213Z,8.20
2023-05-05T03:39:20.658Z,8.43
2023-05-05T03:42:24.402Z,6.72
2023-05-05T03:45:27.255Z,7.93
2023-05-05T03:48:30.224Z,8.25
2023-05-05T03:51:32.947Z,7.93
2023-05-05T03:54:35.720Z,8.82
2023-05-05T03:57:38.079Z,9.02
2023-05-05T04:00:40.599Z,9.63
2023-05-05T04:03:43.659Z,9.35
2023-05-05T04:06:46.117Z,8.60
2023-05-05T04:09:49.011Z,9.50
2023-05-05T04:12:51.357Z,9.85
2023-05-05T04:15:53.812Z,8.85
2023-05-05T04:18:56.433Z,10.32
2023-05-05T04:21:59.093Z,8.33
2023-05-05T04:25:01.390Z,8.20
2023-05-05T04:28:04.295Z,9.55
2023-05-05T04:31:07.471Z,10.60
2023-05-05T04:34:13.031Z,8.02
2023-05-05T04:37:15.508Z,9.93
2023-05-05T04:40:18.203Z,9.45
2023-05-05T04:43:21.121Z,10.93
2023-05-05T04:46:24.779Z,8.93
2023-05-05T04:49:29.726Z,8.05
2023-05-05T04:52:32.151Z,10.87
2023-05-05T04:55:34.463Z,7.65
2023-05-05T04:58:36.654Z,10.40
2023-05-05T05:01:38.964Z,9.20
2023-05-05T05:04:41.294Z,9.63
2023-05-05T05:07:43.524Z,8.97
2023-05-05T05:10:45.785Z,8.82
2023-05-05T05:13:48.039Z,8.82
2023-05-05T05:16:52.430Z,9.82
2023-05-05T05:19:59.339Z,10.18
2023-05-05T05:23:04.752Z,9.30
2023-05-05T05:26:11.086Z,9.82
2023-05-05T05:29:13.918Z,8.43
2023-05-05T05:32:16.275Z,10.05
2023-05-05T05:35:18.860Z,9.50
2023-05-05T05:38:21.162Z,8.73
2023-05-05T05:41:26.180Z,7.28
2023-05-05T05:44:30.058Z,7.25
2023-05-05T05:47:32.748Z,10.48
2023-05-05T05:50:36.568Z,7.40
2023-05-05T05:53:39.595Z,7.30
2023-05-05T05:56:43.723Z,7.90
2023-05-05T05:59:46.485Z,5.93
2023-05-05T06:02:53.951Z,7.47
2023-05-05T06:06:01.487Z,7.88
2023-05-05T06:09:09.618Z,6.37
2023-05-05T06:12:19.483Z,6.40
2023-05-05T06:15:31.342Z,6.07
2023-05-05T06:18:34.951Z,6.80
2023-05-05T06:21:38.268Z,5.50
2023-05-05T06:24:40.779Z,6.87
2023-05-05T06:27:43.164Z,7.35
2023-05-05T06:30:46.348Z,7.32
2023-05-05T06:33:48.997Z,7.45
2023-05-05T06:36:52.191Z,6.47
2023-05-05T06:39:54.817Z,7.87
2023-05-05T06:42:58.508Z,4.70
2023-05-05T06:46:08.300Z,5.25
2023-05-05T06:49:10.767Z,5.22
2023-05-05T06:52:13.204Z,6.45
2023-05-05T06:55:15.899Z,6.63
2023-05-05T06:58:18.170Z,7.03
2023-05-05T07:01:20.562Z,7.35
2023-05-05T07:04:22.960Z,4.88
2023-05-05T07:07:25.397Z,5.20
2023-05-05T07:10:27.837Z,5.27
2023-05-05T07:13:30.151Z,6.68
2023-05-05T07:16:36.788Z,5.20
2023-05-05T07:19:39.113Z,6.22
2023-05-05T07:22:41.486Z,5.82
2023-05-05T07:25:44.194Z,5.80
2023-05-05T07:28:53.204Z,5.25
2023-05-05T07:31:55.647Z,6.20
2023-05-05T07:34:58.565Z,5.88
2023-05-05T07:38:01.159Z,5.57
2023-05-05T07:41:03.532Z,5.27
2023-05-05T07:44:05.757Z,6.55
2023-05-05T07:47:08.104Z,4.70
2023-05-05T07:50:13.461Z,6.68
2023-05-05T07:53:15.699Z,6.38
2023-05-05T07:56:18.945Z,7.13
2023-05-05T07:59:23.184Z,6.03
2023-05-05T08:02:25.801Z,6.88
2023-05-05T08:05:28.178Z,6.97
2023-05-05T08:08:30.574Z,5.88
2023-05-05T08:11:33.394Z,6.43
2023-05-05T08:14:36.374Z,5.75
2023-05-05T08:17:48.901Z,6.25
2023-05-05T08:20:52.039Z,6.22
2023-05-05T08:23:54.298Z,7.45
2023-05-05T08:26:56.835Z,6.80
2023-05-05T08:29:59.284Z,7.07
2023-05-05T08:33:01.707Z,7.05
2023-05-05T08:36:06.314Z,6.82
2023-05-05T08:39:08.816Z,7.35
2023-05-05T08:42:11.242Z,6.73
2023-05-05T08:45:13.711Z,6.50
2023-05-05T08:48:18.241Z,8.52
2023-05-05T08:51:24.074Z,8.98
2023-05-05T08:54:28.410Z,7.32
2023-05-05T08:57:37.871Z,9.67
2023-05-05T09:00:42.240Z,6.00
2023-05-05T09:03:46.135Z,5.50
2023-05-05T09:06:48.590Z,7.00
2023-05-05T09:09:51.021Z,6.68
2023-05-05T09:12:54.109Z,7.73
2023-05-05T09:15:56.735Z,7.15
2023-05-05T09:19:03.322Z,9.85
2023-05-05T09:22:06.673Z,6.97
2023-05-05T09:25:11.501Z,7.20
2023-05-05T09:28:14.866Z,7.10
2023-05-05T09:31:17.196Z,8.70
2023-05-05T09:34:19.602Z,9.18
2023-05-05T09:37:31.967Z,6.90
2023-05-05T09:40:44.305Z,7.25
2023-05-05T09:43:52.579Z,7.20
2023-05-05T09:46:57.889Z,6.40
2023-05-05T09:50:02.684Z,7.72
2023-05-05T09:53:11.250Z,6.18
2023-05-05T09:56:20.036Z,6.70
2023-05-05T09:59:32.200Z,7.80
2023-05-05T10:02:35.868Z,6.50
2023-05-05T10:05:49.095Z,6.43
2023-05-05T10:09:01.288Z,5.95
2023-05-05T10:12:06.903Z,5.63
2023-05-05T10:15:10.933Z,6.93
2023-05-05T10:18:18.092Z,5.68
2023-05-05T10:21:21.402Z,6.20
2023-05-05T10:24:34.634Z,8.02
2023-05-05T10:27:44.265Z,6.65
2023-05-05T10:30:49.540Z,6.63
2023-05-05T10:34:00.517Z,5.53
2023-05-05T10:37:04.828Z,5.53
2023-05-05T10:40:08.346Z,5.25
2023-05-05T10:43:11.104Z,4.90
2023-05-05T10:46:13.447Z,7.20
2023-05-05T10:49:25.056Z,5.90
2023-05-05T10:52:39.379Z,6.35
2023-05-05T10:55:50.308Z,6.65
2023-05-05T10:58:59.685Z,10.38
2023-05-05T11:02:29.667Z,6.70
2023-05-05T11:05:32.329Z,6.32
2023-05-05T11:08:35.549Z,5.70
2023-05-05T11:12:04.446Z,7.07
2023-05-05T11:15:25.976Z,5.10
2023-05-05T11:18:36.017Z,6.97
2023-05-05T11:21:58.348Z,6.07
2023-05-05T11:25:00.683Z,6.07
2023-05-05T11:28:19.299Z,5.90
2023-05-05T11:31:21.972Z,6.63
2023-05-05T11:34:26.315Z,6.23
2023-05-05T11:37:28.907Z,8.30
2023-05-05T11:40:36.415Z,9.55
2023-05-05T11:43:39.033Z,6.47
2023-05-05T11:47:01.723Z,6.72
2023-05-05T11:50:16.212Z,7.97
2023-05-05T11:53:19.941Z,8.68
2023-05-05T11:56:22.560Z,7.93
2023-05-05T11:59:27.668Z,10.80
2023-05-05T12:02:30.391Z,7.00
2023-05-05T12:05:34.819Z,10.77
2023-05-05T12:08:39.527Z,7.85
2023-05-05T12:12:08.244Z,7.05
2023-05-05T12:15:10.564Z,6.25
2023-05-05T12:18:22.114Z,5.72
2023-05-05T12:21:24.349Z,10.40
2023-05-05T12:24:26.845Z,6.90
2023-05-05T12:27:29.208Z,6.75
2023-05-05T12:30:31.656Z,5.25
2023-05-05T12:33:38.580Z,5.47
2023-05-05T12:36:41.665Z,5.10
2023-05-05T12:39:43.950Z,5.65
2023-05-05T12:42:46.477Z,8.52
2023-05-05T12:45:49.565Z,6.82
2023-05-05T12:49:05.225Z,6.93
2023-05-05T12:52:08.098Z,8.07
2023-05-05T12:55:11.459Z,8.32
2023-05-05T12:58:13.858Z,9.00
2023-05-05T13:01:16.217Z,8.38
2023-05-05T13:04:18.747Z,8.18
2023-05-05T13:07:21.700Z,5.13
2023-05-05T13:10:25.166Z,4.88
2023-05-05T13:13:27.378Z,5.20
2023-05-05T13:16:29.932Z,6.35
2023-05-05T13:19:32.179Z,6.82
2023-05-05T13:22:34.367Z,7.70
2023-05-05T13:25:36.662Z,5.65
2023-05-05T13:28:39.377Z,5.22
2023-05-05T13:31:41.897Z,6.18
2023-05-05T13:34:44.294Z,5.93
2023-05-05T13:37:47.635Z,6.17
2023-05-05T13:40:49.877Z,6.28
2023-05-05T13:43:52.232Z,6.15
2023-05-05T13:46:54.561Z,6.68
2023-05-05T13:49:57.204Z,8.88
2023-05-05T13:52:59.694Z,7.80
2023-05-05T13:56:05.142Z,5.15
2023-05-05T13:59:07.510Z,7.70
2023-05-05T14:02:09.868Z,4.95
2023-05-05T14:05:12.280Z,8.55
2023-05-05T14:08:14.462Z,4.63
2023-05-05T14:11:18.209Z,5.90
2023-05-05T14:14:20.441Z,8.32
2023-05-05T14:17:22.675Z,5.75
2023-05-05T14:20:25.139Z,6.78
2023-05-05T14:23:27.378Z,6.00
2023-05-05T14:26:29.632Z,6.70
2023-05-05T14:29:31.829Z,6.45
2023-05-05T14:32:34.059Z,4.80
2023-05-05T14:35:36.312Z,4.93
2023-05-05T14:38:38.637Z,5.10
2023-05-05T14:41:40.964Z,6.68
2023-05-05T14:44:43.223Z,6.38
2023-05-05T14:47:45.497Z,6.00
2023-05-05T14:50:48.255Z,5.03
2023-05-05T14:53:50.711Z,5.83
2023-05-05T14:56:52.923Z,5.88
2023-05-05T14:59:55.130Z,8.13
2023-05-05T15:02:57.471Z,5.60
2023-05-05T15:05:59.744Z,6.53
2023-05-05T15:09:01.978Z,5.93
2023-05-05T15:12:04.371Z,6.45
2023-05-05T15:15:08.655Z,8.02
2023-05-05T15:18:11.614Z,6.47
2023-05-05T15:21:13.847Z,7.50
2023-05-05T15:24:16.062Z,6.70
2023-05-05T15:27:18.839Z,5.97
2023-05-05T15:30:21.116Z,7.00
2023-05-05T15:33:23.282Z,9.40
2023-05-05T15:36:25.546Z,5.78
2023-05-05T15:39:27.732Z,7.87
2023-05-05T15:42:31.809Z,6.72
2023-05-05T15:45:34.210Z,6.25
2023-05-05T15:48:36.458Z,5.45
2023-05-05T15:51:38.736Z,6.65
2023-05-05T15:54:41.526Z,6.33
2023-05-05T15:57:44.269Z,5.22
2023-05-05T16:00:48.385Z,4.70
2023-05-05T16:03:56.354Z,5.75
2023-05-05T16:07:03.342Z,5.20
2023-05-05T16:10:06.060Z,9.97
2023-05-05T16:13:08.348Z,5.97
2023-05-05T16:16:10.863Z,6.97
2023-05-05T16:19:13.250Z,4.60
2023-05-05T16:22:16.248Z,5.50
2023-05-05T16:25:19.957Z,4.77
2023-05-05T16:28:22.155Z,5.07
2023-05-05T16:31:24.383Z,6.97
2023-05-05T16:34:27.792Z,5.88
2023-05-05T16:37:30.020Z,6.18
2023-05-05T16:40:32.237Z,5.13
2023-05-05T16:43:35.129Z,6.60
2023-05-05T16:46:37.747Z,5.25
2023-05-05T16:49:40.047Z,6.57
2023-05-05T16:52:42.209Z,5.57
2023-05-05T16:55:44.411Z,6.00
2023-05-05T16:58:46.715Z,4.50
2023-05-05T17:01:48.999Z,6.30
2023-05-05T17:04:51.280Z,6.18
2023-05-05T17:07:53.572Z,5.97
2023-05-05T17:10:55.782Z,7.17
2023-05-05T17:13:57.968Z,4.85
2023-05-05T17:17:00.177Z,6.13
2023-05-05T17:20:05.316Z,7.38
2023-05-05T17:23:08.889Z,5.32
2023-05-05T17:26:11.099Z,7.20
2023-05-05T17:29:14.302Z,7.45
2023-05-05T17:32:16.566Z,7.03
2023-05-05T17:35:18.990Z,10.60
2023-05-05T17:38:21.450Z,7.70
2023-05-05T17:41:25.657Z,6.87
2023-05-05T17:44:27.850Z,8.32
2023-05-05T17:47:30.091Z,8.32
2023-05-05T17:50:32.387Z,6.00
2023-05-05T17:53:34.701Z,7.18
2023-05-05T17:56:38.124Z,8.93
2023-05-05T17:59:40.346Z,9.93
2023-05-05T18:02:42.643Z,8.95
2023-05-05T18:05:44.960Z,10.00
2023-05-05T18:08:47.688Z,11.63
2023-05-05T18:11:56.425Z,9.03
2023-05-05T18:14:58.611Z,8.93
2023-05-05T18:18:00.973Z,10.55
2023-05-05T18:21:03.179Z,6.50
2023-05-05T18:24:18.779Z,7.47
2023-05-05T18:27:22.418Z,8.10
2023-05-05T18:30:24.649Z,12.07
2023-05-05T18:33:26.810Z,7.63
2023-05-05T18:36:28.986Z,8.57
2023-05-05T18:39:31.161Z,8.82
2023-05-05T18:42:33.417Z,11.10
2023-05-05T18:45:35.725Z,9.82
2023-05-05T18:48:37.994Z,12.10
2023-05-05T18:51:40.175Z,8.43
2023-05-05T18:54:42.481Z,8.73
2023-05-05T18:57:44.699Z,10.07
2023-05-05T19:00:46.948Z,11.20
2023-05-05T19:03:49.344Z,11.27
2023-05-05T19:06:52.597Z,9.52
2023-05-05T19:09:55.086Z,9.10
2023-05-05T19:12:57.311Z,8.17
2023-05-05T19:15:59.577Z,11.45
2023-05-05T19:19:01.786Z,11.32
2023-05-05T19:22:04.317Z,10.48
2023-05-05T19:25:06.750Z,11.95
2023-05-05T19:28:09.503Z,10.93
2023-05-05T19:31:11.666Z,10.15
2023-05-05T19:34:13.846Z,13.63
2023-05-05T19:37:16.112Z,11.40
2023-05-05T19:40:18.442Z,11.20
2023-05-05T19:43:20.699Z,10.57
2023-05-05T19:46:23.741Z,11.18
2023-05-05T19:49:26.316Z,12.90
2023-05-05T19:52:28.652Z,11.43
2023-05-05T19:55:32.204Z,11.15
2023-05-05T19:58:52.021Z,13.90
2023-05-05T20:01:54.328Z,16.85
2023-05-05T20:04:57.653Z,13.38
2023-05-05T20:07:59.843Z,12.43
2023-05-05T20:11:02.017Z,13.35
2023-05-05T20:14:04.278Z,9.37
2023-05-05T20:17:06.469Z,10.02
2023-05-05T20:20:08.900Z,11.18
2023-05-05T20:23:11.196Z,11.15
2023-05-05T20:26:13.563Z,10.52
2023-05-05T20:29:16.336Z,14.60
2023-05-05T20:32:20.645Z,10.68
2023-05-05T20:35:22.967Z,10.32
2023-05-05T20:38:25.270Z,12.73
2023-05-05T20:41:27.446Z,10.85
2023-05-05T20:44:29.655Z,10.77
2023-05-05T20:47:33.454Z,11.50
2023-05-05T20:50:39.143Z,10.93
2023-05-05T20:53:41.360Z,10.35
2023-05-05T20:56:43.622Z,12.38
2023-05-05T20:59:45.904Z,13.27
2023-05-05T21:02:48.259Z,12.02
2023-05-05T21:05:50.481Z,11.80
2023-05-05T21:08:52.748Z,10.00
2023-05-05T21:11:54.941Z,11.52
2023-05-05T21:14:58.888Z,10.87
2023-05-05T21:18:01.611Z,10.50
2023-05-05T21:21:03.918Z,10.63
2023-05-05T21:24:07.892Z,11.90
2023-05-05T21:27:10.509Z,11.80
2023-05-05T21:30:13.316Z,12.60
2023-05-05T21:33:15.687Z,10.00
2023-05-05T21:36:19.313Z,9.82
2023-05-05T21:39:21.636Z,10.32
2023-05-05T21:42:23.873Z,11.82
2023-05-05T21:45:26.083Z,10.30
2023-05-05T21:48:28.312Z,10.90
2023-05-05T21:51:31.290Z,13.07
2023-05-05T21:54:33.638Z,11.60
2023-05-05T21:57:35.814Z,12.88
2023-05-05T22:00:38.036Z,13.67
2023-05-05T22:03:42.334Z,13.23
2023-05-05T22:06:53.432Z,11.52
2023-05-05T22:09:55.729Z,11.15
2023-05-05T22:12:58.285Z,14.10
2023-05-05T22:16:00.671Z,10.67
2023-05-05T22:19:02.889Z,12.98
2023-05-05T22:22:05.186Z,10.77
2023-05-05T22:25:07.986Z,11.30
2023-05-05T22:28:11.217Z,13.48
2023-05-05T22:31:13.516Z,12.53
2023-05-05T22:34:16.026Z,12.60
2023-05-05T22:37:18.334Z,11.07
2023-05-05T22:40:20.652Z,10.82
2023-05-05T22:43:22.884Z,11.77
2023-05-05T22:46:25.222Z,12.23
2023-05-05T22:49:28.844Z,11.90
2023-05-05T22:52:31.081Z,13.60
2023-05-05T22:55:33.958Z,12.07
2023-05-05T22:58:36.261Z,13.95
2023-05-05T23:01:38.487Z,12.77
2023-05-05T23:04:41.018Z,12.63
2023-05-05T23:07:43.311Z,12.68
2023-05-05T23:10:45.710Z,12.55
2023-05-05T23:13:47.941Z,13.98
2023-05-05T23:16:50.192Z,11.87
2023-05-05T23:19:52.445Z,14.00
2023-05-05T23:22:55.069Z,11.52
2023-05-05T23:25:57.352Z,13.70
2023-05-05T23:28:59.519Z,15.43
2023-05-05T23:32:01.719Z,12.30
2023-05-05T23:35:04.188Z,13.18
2023-05-05T23:38:06.762Z,13.98
2023-05-05T23:41:08.995Z,12.95
2023-05-05T23:44:11.267Z,14.55
2023-05-05T23:47:13.457Z,15.50
2023-05-05T23:50:15.853Z,13.75
2023-05-05T23:53:18.108Z,12.25
2023-05-05T23:56:20.305Z,14.55
2023-05-05T23:59:22.576Z,13.82
